createdAt,value
2023-03-22T00:01:21.838Z,10.80
2023-03-22T00:06:26.806Z,11.00
2023-03-22T00:11:30.221Z,10.80
2023-03-22T00:16:35.039Z,10.60
2023-03-22T00:21:38.600Z,10.60
2023-03-22T00:26:42.040Z,10.50
2023-03-22T00:31:47.119Z,10.50
2023-03-22T00:36:52.204Z,10.50
2023-03-22T00:41:56.467Z,10.50
2023-03-22T00:47:01.240Z,10.60
2023-03-22T00:52:04.757Z,10.50
2023-03-22T00:57:08.558Z,10.50
2023-03-22T01:02:14.558Z,10.60
2023-03-22T01:07:21.735Z,10.60
2023-03-22T01:12:25.379Z,10.70
2023-03-22T01:17:30.376Z,10.70
2023-03-22T01:22:33.828Z,10.60
2023-03-22T01:27:37.800Z,10.50
2023-03-22T01:32:42.913Z,12.00
2023-03-22T01:37:46.413Z,10.70
2023-03-22T01:42:49.986Z,10.50
2023-03-22T01:48:01.474Z,10.30
2023-03-22T01:53:10.365Z,10.20
2023-03-22T01:58:18.157Z,10.30
2023-03-22T02:03:42.362Z,10.30
2023-03-22T02:08:49.940Z,10.00
2023-03-22T02:14:09.756Z,9.90
2023-03-22T02:19:42.610Z,9.70
2023-03-22T02:25:34.015Z,10.00
2023-03-22T02:31:06.200Z,6.50
2023-03-22T02:36:31.056Z,9.50
2023-03-22T02:41:46.411Z,9.70
2023-03-22T02:46:58.279Z,9.50
2023-03-22T02:52:04.769Z,9.40
2023-03-22T02:57:15.837Z,9.50
2023-03-22T03:02:21.029Z,9.10
2023-03-22T03:07:28.487Z,9.10
2023-03-22T03:12:33.611Z,8.90
2023-03-22T03:17:50.387Z,8.40
2023-03-22T03:23:07.404Z,8.90
2023-03-22T03:28:23.038Z,8.90
2023-03-22T03:33:30.957Z,8.70
2023-03-22T03:38:40.149Z,8.70
2023-03-22T03:43:46.919Z,8.70
2023-03-22T03:48:53.000Z,8.70
2023-03-22T03:53:56.438Z,8.70
2023-03-22T03:59:01.672Z,8.70
2023-03-22T04:04:05.292Z,8.60
2023-03-22T04:09:22.939Z,8.40
2023-03-22T04:14:32.214Z,8.20
2023-03-22T04:19:44.834Z,8.10
2023-03-22T04:24:50.254Z,8.00
2023-03-22T04:30:01.074Z,7.80
2023-03-22T04:35:24.880Z,7.60
2023-03-22T04:40:31.934Z,7.30
2023-03-22T04:45:48.970Z,7.20
2023-03-22T04:50:58.123Z,7.20
2023-03-22T04:56:05.646Z,7.20
2023-03-22T05:01:12.898Z,7.50
2023-03-22T05:06:19.664Z,7.10
2023-03-22T05:11:32.555Z,7.10
2023-03-22T05:16:57.788Z,7.00
2023-03-22T05:22:02.175Z,7.10
2023-03-22T05:27:39.210Z,6.90
2023-03-22T05:33:14.597Z,6.90
2023-03-22T05:38:23.137Z,6.90
2023-03-22T05:43:29.174Z,6.80
2023-03-22T05:48:34.703Z,6.90
2023-03-22T05:53:38.484Z,7.00
2023-03-22T05:58:52.550Z,7.10
2023-03-22T06:03:59.872Z,7.20
2023-03-22T06:09:17.440Z,7.30
2023-03-22T06:14:25.656Z,8.10
2023-03-22T06:19:53.049Z,9.20
2023-03-22T06:24:56.940Z,9.90
2023-03-22T06:30:11.399Z,10.10
2023-03-22T06:35:35.576Z,10.20
2023-03-22T06:40:40.638Z,10.60
2023-03-22T06:45:44.506Z,10.80
2023-03-22T06:50:49.690Z,10.70
2023-03-22T06:56:04.096Z,12.10
2023-03-22T07:01:14.368Z,11.60
2023-03-22T07:06:22.286Z,13.20
2023-03-22T07:11:27.407Z,13.20
2023-03-22T07:16:36.487Z,16.10
2023-03-22T07:21:43.711Z,13.10
2023-03-22T07:26:49.538Z,13.00
2023-03-22T07:31:58.119Z,13.10
2023-03-22T07:37:08.474Z,13.50
2023-03-22T07:42:12.693Z,12.80
2023-03-22T07:47:30.820Z,11.50
2023-03-22T07:53:09.439Z,12.70
2023-03-22T07:58:12.832Z,13.00
2023-03-22T08:03:17.726Z,13.50
2023-03-22T08:08:41.590Z,13.60
2023-03-22T08:13:45.119Z,14.10
2023-03-22T08:18:49.026Z,15.10
2023-03-22T08:23:54.480Z,14.90
2023-03-22T08:29:24.013Z,14.20
2023-03-22T08:34:27.598Z,15.60
2023-03-22T08:39:32.707Z,14.20
2023-03-22T08:44:54.872Z,15.70
2023-03-22T08:50:01.403Z,15.70
2023-03-22T08:55:17.523Z,18.60
2023-03-22T09:00:50.463Z,15.20
2023-03-22T09:06:01.889Z,17.80
2023-03-22T09:11:12.544Z,17.70
2023-03-22T09:16:17.056Z,19.10
2023-03-22T09:21:21.948Z,19.20
2023-03-22T09:26:47.324Z,18.10
2023-03-22T09:31:53.736Z,20.50
2023-03-22T09:37:04.982Z,19.70
2023-03-22T09:42:30.865Z,20.60
2023-03-22T09:47:45.064Z,20.30
2023-03-22T09:52:49.476Z,19.40
2023-03-22T09:58:04.201Z,16.90
2023-03-22T10:03:21.276Z,17.70
2023-03-22T10:08:38.723Z,17.20
2023-03-22T10:13:49.281Z,17.10
2023-03-22T10:18:58.203Z,17.70
2023-03-22T10:24:05.265Z,18.20
2023-03-22T10:29:15.881Z,17.50
2023-03-22T10:34:23.083Z,17.60
2023-03-22T10:39:32.721Z,17.60
2023-03-22T10:44:48.166Z,17.00
2023-03-22T10:49:55.259Z,17.50
2023-03-22T10:55:02.990Z,17.40
2023-03-22T11:00:12.631Z,18.10
2023-03-22T11:05:25.896Z,17.70
2023-03-22T11:10:32.935Z,18.20
2023-03-22T11:15:41.883Z,18.40
2023-03-22T11:20:57.007Z,19.00
2023-03-22T11:26:06.820Z,19.90
2023-03-22T11:31:13.370Z,19.90
2023-03-22T11:36:19.005Z,19.50
2023-03-22T11:41:25.706Z,20.30
2023-03-22T11:46:31.439Z,18.80
2023-03-22T11:51:36.763Z,18.40
2023-03-22T11:56:43.505Z,19.60
2023-03-22T12:01:52.468Z,19.40
2023-03-22T12:06:59.853Z,21.30
2023-03-22T12:12:05.311Z,19.50
2023-03-22T12:17:17.839Z,21.30
2023-03-22T12:22:26.045Z,22.00
2023-03-22T12:27:34.348Z,21.20
2023-03-22T12:32:49.452Z,20.50
2023-03-22T12:37:56.902Z,20.30
2023-03-22T12:43:07.293Z,21.50
2023-03-22T12:48:18.053Z,20.40
2023-03-22T12:53:22.498Z,21.10
2023-03-22T12:58:28.329Z,20.50
2023-03-22T13:03:41.735Z,21.80
2023-03-22T13:09:15.904Z,21.60
2023-03-22T13:14:58.059Z,23.40
2023-03-22T13:20:23.675Z,20.90
2023-03-22T13:25:31.544Z,20.90
2023-03-22T13:30:37.870Z,20.50
2023-03-22T13:35:46.837Z,21.80
2023-03-22T13:40:56.033Z,21.80
2023-03-22T13:46:16.162Z,22.70
2023-03-22T13:51:30.518Z,20.90
2023-03-22T13:56:48.691Z,21.50
2023-03-22T14:01:54.429Z,23.70
2023-03-22T14:07:07.117Z,21.20
2023-03-22T14:12:19.125Z,20.50
2023-03-22T14:17:32.527Z,21.00
